Time;durP1;ratioP1;P1;durP2;ratioP2;P2;SDS_P1;SDS_P2;PMS_P1;PMS_P2;Temp;Humidity;BMP_temperature;BMP_pressure;BME280_temperature;BME280_humidity;BME280_pressure;Samples;Min_cycle;Max_cycle;Signal;HPM_P1;HPM_P2
2024/01/06 00:05:36;;;;;;;160.13;149.52;;;5.60;99.90;;;;;;12382740;28;20081;-35
2024/01/06 00:11:38;;;;;;;162.25;151.55;;;5.60;99.90;;;;;;12380553;28;20405;-35
2024/01/06 00:17:39;;;;;;;154.57;144.30;;;5.60;99.90;;;;;;12348429;28;20054;-35
2024/01/06 00:23:42;;;;;;;150.30;140.20;;;5.60;99.90;;;;;;12346216;28;20062;-35
2024/01/06 00:29:44;;;;;;;149.32;139.50;;;5.60;99.90;;;;;;12339457;28;20054;-35
2024/01/06 00:35:45;;;;;;;151.38;141.20;;;5.60;99.90;;;;;;12358062;28;20524;-33
2024/01/06 00:41:47;;;;;;;151.38;141.18;;;5.70;99.90;;;;;;12373547;28;20128;-35
2024/01/06 00:47:49;;;;;;;156.45;146.07;;;5.60;99.90;;;;;;12363626;28;20081;-35
2024/01/06 00:53:51;;;;;;;158.27;147.73;;;5.60;99.90;;;;;;12368959;28;20051;-35
2024/01/06 00:59:53;;;;;;;177.65;165.75;;;5.70;99.90;;;;;;12350313;28;20074;-34
2024/01/06 01:05:55;;;;;;;185.05;172.88;;;5.80;99.90;;;;;;12348901;28;20051;-35
2024/01/06 01:11:57;;;;;;;187.25;175.05;;;5.80;99.90;;;;;;12395322;28;20047;-34
2024/01/06 01:17:59;;;;;;;189.95;177.60;;;5.80;99.90;;;;;;12368417;28;20078;-34
2024/01/06 01:24:02;;;;;;;184.73;172.80;;;5.70;99.90;;;;;;12379219;28;20387;-35
2024/01/06 01:30:05;;;;;;;179.80;168.10;;;5.50;99.90;;;;;;12380573;28;20396;-34
2024/01/06 01:36:07;;;;;;;171.73;160.68;;;5.40;99.90;;;;;;12361280;28;20077;-34
2024/01/06 01:42:09;;;;;;;172.35;161.00;;;5.30;99.90;;;;;;12361443;28;20054;-35
2024/01/06 01:48:11;;;;;;;174.80;163.35;;;5.30;99.90;;;;;;12369239;28;20487;-35
2024/01/06 01:54:14;;;;;;;171.63;160.32;;;5.20;99.90;;;;;;12377661;28;20128;-35
2024/01/06 02:00:16;;;;;;;164.43;153.77;;;5.20;99.90;;;;;;12384107;28;20054;-35
2024/01/06 02:06:19;;;;;;;165.02;154.15;;;5.20;99.90;;;;;;12378715;28;20510;-35
2024/01/06 02:12:21;;;;;;;167.45;156.50;;;5.20;99.90;;;;;;12388537;28;20048;-35
2024/01/06 02:18:23;;;;;;;168.30;157.25;;;5.10;99.90;;;;;;12381820;28;20407;-35
2024/01/06 02:24:25;;;;;;;162.65;151.90;;;5.10;99.90;;;;;;12350889;28;20138;-35
2024/01/06 02:30:27;;;;;;;161.88;151.13;;;5.00;99.90;;;;;;12364172;28;20058;-35
2024/01/06 02:36:29;;;;;;;166.05;155.00;;;5.00;99.90;;;;;;12362994;28;20050;-36
2024/01/06 02:42:31;;;;;;;174.90;163.30;;;5.00;99.90;;;;;;12351398;28;20093;-35
2024/01/06 02:48:33;;;;;;;177.40;165.88;;;5.10;99.90;;;;;;12361108;28;20076;-34
2024/01/06 02:54:35;;;;;;;176.00;164.35;;;5.00;99.90;;;;;;12361476;28;20062;-35
2024/01/06 03:00:37;;;;;;;176.25;164.77;;;4.90;99.90;;;;;;12402423;28;20137;-35
2024/01/06 03:06:39;;;;;;;182.88;170.73;;;4.90;99.90;;;;;;12411607;28;20553;-35
2024/01/06 03:12:41;;;;;;;189.10;176.85;;;4.80;99.90;;;;;;12415296;28;20173;-35
2024/01/06 03:18:43;;;;;;;194.90;182.32;;;4.80;99.90;;;;;;12382368;28;20054;-35
2024/01/06 03:24:45;;;;;;;192.80;180.13;;;4.80;99.90;;;;;;12370711;28;20050;-35
2024/01/06 03:30:47;;;;;;;196.30;183.50;;;4.80;99.90;;;;;;12355511;28;20146;-35
2024/01/06 03:36:49;;;;;;;195.48;182.57;;;4.80;99.90;;;;;;12352658;28;20055;-33
2024/01/06 03:42:53;;;;;;;196.00;182.80;;;4.80;99.90;;;;;;12359116;28;20061;-34
2024/01/06 03:48:55;;;;;;;201.80;188.70;;;4.90;99.90;;;;;;12373092;28;20423;-35
2024/01/06 03:54:57;;;;;;;200.73;187.45;;;4.90;99.90;;;;;;12375291;28;20088;-34
2024/01/06 04:01:00;;;;;;;205.10;191.50;;;5.00;99.90;;;;;;12376127;28;20474;-35
2024/01/06 04:07:02;;;;;;;204.07;190.38;;;4.90;99.90;;;;;;12359371;28;20384;-34
2024/01/06 04:13:04;;;;;;;210.88;197.00;;;4.90;99.90;;;;;;12362206;28;20042;-35
2024/01/06 04:19:07;;;;;;;208.98;195.25;;;5.00;99.90;;;;;;12373176;28;20495;-34
2024/01/06 04:25:09;;;;;;;205.05;191.55;;;4.90;99.90;;;;;;12364541;28;20085;-35
2024/01/06 04:31:11;;;;;;;208.13;194.45;;;5.00;99.90;;;;;;12364496;28;20069;-34
2024/01/06 04:37:13;;;;;;;214.68;200.77;;;5.00;99.90;;;;;;12353695;28;20062;-34
2024/01/06 04:43:15;;;;;;;218.73;204.48;;;4.90;99.90;;;;;;12364410;28;20069;-35
2024/01/06 04:49:17;;;;;;;223.57;209.02;;;5.00;99.90;;;;;;12376182;28;20410;-34
2024/01/06 04:55:19;;;;;;;228.05;213.18;;;5.00;99.90;;;;;;12363807;28;20050;-35
2024/01/06 05:01:21;;;;;;;227.82;213.23;;;5.00;99.90;;;;;;12389914;28;20054;-35
2024/01/06 05:07:23;;;;;;;231.10;216.27;;;5.00;99.90;;;;;;12364126;28;20069;-35
2024/01/06 05:13:25;;;;;;;238.07;222.73;;;5.10;99.90;;;;;;12371412;28;20055;-34
2024/01/06 05:19:27;;;;;;;262.73;246.07;;;5.10;99.90;;;;;;12361289;28;20051;-35
2024/01/06 05:25:29;;;;;;;274.95;257.27;;;5.10;99.90;;;;;;12354542;28;20174;-35
2024/01/06 05:31:31;;;;;;;270.42;253.02;;;5.20;99.90;;;;;;12373630;28;20081;-35
2024/01/06 05:37:33;;;;;;;269.00;251.65;;;5.20;99.90;;;;;;12357449;28;20141;-34
2024/01/06 05:43:34;;;;;;;261.38;244.95;;;5.10;99.90;;;;;;12364149;28;20062;-34
2024/01/06 05:49:41;;;;;;;261.63;245.40;;;5.10;99.90;;;;;;12359855;28;20042;-35
2024/01/06 05:55:42;;;;;;;259.75;243.60;;;5.10;99.90;;;;;;12360486;28;20046;-34
2024/01/06 06:01:45;;;;;;;249.68;234.18;;;5.10;99.90;;;;;;12363907;28;20054;-35
2024/01/06 06:07:47;;;;;;;236.43;221.93;;;4.90;99.90;;;;;;12388439;28;20050;-35
2024/01/06 06:13:48;;;;;;;237.63;222.77;;;4.90;99.90;;;;;;12373391;28;20085;-35
2024/01/06 06:19:50;;;;;;;229.57;215.15;;;4.90;99.90;;;;;;12376743;28;20050;-35
2024/01/06 06:25:52;;;;;;;220.50;206.77;;;4.90;99.90;;;;;;12360131;28;20051;-34
2024/01/06 06:31:54;;;;;;;210.68;197.63;;;4.70;99.90;;;;;;12389997;28;20565;-35
2024/01/06 06:37:56;;;;;;;208.80;195.90;;;4.80;99.90;;;;;;12375098;28;20520;-35
2024/01/06 06:43:59;;;;;;;206.68;194.07;;;4.50;99.90;;;;;;12354354;28;20051;-35
2024/01/06 06:50:01;;;;;;;207.13;194.35;;;4.50;99.90;;;;;;12364468;28;20444;-35
2024/01/06 06:56:04;;;;;;;207.88;194.90;;;4.60;99.90;;;;;;12362659;28;20047;-35
2024/01/06 07:02:05;;;;;;;207.85;194.90;;;4.50;99.90;;;;;;12357745;28;20089;-34
2024/01/06 07:08:07;;;;;;;208.25;195.30;;;4.40;99.90;;;;;;12373958;28;20066;-35
2024/01/06 07:14:09;;;;;;;200.52;187.95;;;4.40;99.90;;;;;;12374202;28;20054;-34
2024/01/06 07:20:11;;;;;;;194.75;182.32;;;4.50;99.90;;;;;;12364486;28;20096;-35
2024/01/06 07:26:13;;;;;;;184.43;172.75;;;4.40;99.90;;;;;;12372616;28;20065;-34
2024/01/06 07:32:15;;;;;;;182.73;171.38;;;4.40;99.90;;;;;;12367549;28;20126;-35
2024/01/06 07:38:17;;;;;;;184.75;173.25;;;4.40;99.90;;;;;;12357685;28;20050;-35
2024/01/06 07:44:24;;;;;;;180.37;169.23;;;4.20;99.90;;;;;;12355488;28;20051;-34
2024/01/06 07:50:27;;;;;;;180.00;168.77;;;4.40;99.90;;;;;;12369732;28;20051;-35
2024/01/06 07:56:29;;;;;;;181.52;170.10;;;4.40;99.90;;;;;;12359132;28;20043;-35
2024/01/06 08:02:31;;;;;;;175.70;164.63;;;4.30;99.90;;;;;;12374651;28;20402;-35
2024/01/06 08:08:33;;;;;;;178.40;167.20;;;4.30;99.90;;;;;;12367902;28;20051;-35
2024/01/06 08:14:35;;;;;;;178.93;167.63;;;4.30;99.90;;;;;;12353964;28;20051;-34
2024/01/06 08:20:37;;;;;;;180.60;169.40;;;4.20;99.90;;;;;;12367207;28;20069;-35
2024/01/06 08:26:39;;;;;;;170.73;160.15;;;4.20;99.90;;;;;;12372341;28;20042;-34
2024/01/06 08:32:41;;;;;;;170.63;159.93;;;4.40;99.90;;;;;;12376971;28;20055;-35
2024/01/06 08:38:43;;;;;;;158.35;148.63;;;4.20;99.90;;;;;;12394075;28;20078;-35
2024/01/06 08:44:45;;;;;;;153.73;144.43;;;4.10;99.90;;;;;;12374782;28;20050;-35
2024/01/06 08:50:47;;;;;;;151.05;141.90;;;4.00;99.90;;;;;;12360304;28;20502;-35
2024/01/06 08:56:49;;;;;;;147.48;138.60;;;4.00;99.90;;;;;;12352866;28;20042;-34
2024/01/06 09:02:50;;;;;;;145.73;137.02;;;4.20;99.90;;;;;;12361573;28;20418;-35
2024/01/06 09:08:52;;;;;;;150.93;141.80;;;4.00;99.90;;;;;;12389262;28;20053;-35
2024/01/06 09:14:54;;;;;;;146.00;137.20;;;4.00;99.90;;;;;;12382600;28;20080;-35
2024/01/06 09:20:56;;;;;;;146.32;137.25;;;4.10;99.90;;;;;;12363492;28;20057;-35
2024/01/06 09:26:58;;;;;;;143.52;134.65;;;4.20;99.90;;;;;;12396804;28;20402;-35
2024/01/06 09:33:00;;;;;;;151.15;141.68;;;4.20;99.90;;;;;;12365061;28;20108;-34
2024/01/06 09:39:02;;;;;;;161.25;151.18;;;4.00;99.90;;;;;;12413434;28;20048;-35
2024/01/06 09:45:04;;;;;;;159.43;149.35;;;4.20;99.90;;;;;;12369481;28;20089;-35
2024/01/06 09:51:10;;;;;;;157.32;147.57;;;4.20;99.90;;;;;;12377283;28;20094;-35
2024/01/06 09:57:14;;;;;;;163.68;153.48;;;4.20;99.90;;;;;;12405857;28;20273;-35
2024/01/06 10:03:16;;;;;;;163.90;153.73;;;4.10;99.90;;;;;;12362413;28;20073;-35
2024/01/06 10:09:25;;;;;;;159.50;149.70;;;4.10;99.90;;;;;;12372236;28;20509;-35
2024/01/06 10:15:27;;;;;;;156.32;146.93;;;4.10;99.90;;;;;;12379799;28;20066;-35
2024/01/06 10:21:29;;;;;;;159.52;149.93;;;4.30;99.90;;;;;;12374636;28;20074;-35
2024/01/06 10:27:33;;;;;;;161.10;151.13;;;4.30;99.90;;;;;;12355135;28;20138;-35
2024/01/06 10:33:35;;;;;;;158.82;149.02;;;4.20;99.90;;;;;;12389542;28;20044;-34
2024/01/06 10:39:38;;;;;;;159.82;150.15;;;4.30;99.90;;;;;;12376281;28;20054;-35
2024/01/06 10:45:40;;;;;;;162.43;152.63;;;4.30;99.90;;;;;;12367026;28;20099;-35
2024/01/06 10:51:44;;;;;;;161.57;151.98;;;4.10;99.90;;;;;;12367493;28;20043;-35
2024/01/06 10:57:46;;;;;;;164.70;155.00;;;4.10;99.90;;;;;;12378079;28;20048;-35
2024/01/06 11:03:49;;;;;;;156.30;147.02;;;4.30;99.90;;;;;;12443506;28;20528;-35
2024/01/06 11:09:58;;;;;;;158.27;148.98;;;4.30;99.90;;;;;;12370113;28;20050;-34
2024/01/06 11:16:03;;;;;;;152.13;143.23;;;4.20;99.90;;;;;;12355937;28;20046;-35
2024/01/06 11:22:21;;;;;;;;;;;4.40;99.90;;;;;;12357669;28;20085;-35
2024/01/06 11:28:25;;;;;;;139.90;131.90;;;4.50;99.90;;;;;;12352703;28;19925;-35
2024/01/06 11:34:31;;;;;;;147.73;139.35;;;4.60;99.90;;;;;;12355361;28;20081;-35
2024/01/06 11:40:36;;;;;;;140.02;132.13;;;4.70;99.90;;;;;;12344052;28;20145;-35
2024/01/06 11:46:40;;;;;;;142.10;134.00;;;4.80;99.90;;;;;;12415027;28;20191;-35
2024/01/06 11:52:42;;;;;;;145.10;136.85;;;4.80;99.90;;;;;;12389716;28;20050;-34
2024/01/06 11:58:46;;;;;;;146.93;138.48;;;4.80;99.90;;;;;;12375509;28;20173;-35
2024/01/06 12:04:52;;;;;;;151.45;142.38;;;4.90;99.90;;;;;;12376900;28;20045;-35
2024/01/06 12:11:04;;;;;;;157.10;147.50;;;4.70;99.90;;;;;;12372489;28;20153;-35
2024/01/06 12:17:06;;;;;;;159.18;149.57;;;4.50;99.90;;;;;;12361048;28;20410;-35
2024/01/06 12:23:08;;;;;;;163.45;153.55;;;4.60;99.90;;;;;;12369677;28;20697;-35
2024/01/06 12:29:11;;;;;;;161.50;151.63;;;4.50;99.90;;;;;;12364165;28;20051;-35
2024/01/06 12:35:14;;;;;;;167.30;157.00;;;4.50;99.90;;;;;;12347450;28;20063;-35
2024/01/06 12:41:16;;;;;;;172.52;161.90;;;4.40;99.90;;;;;;12354104;28;20050;-34
2024/01/06 12:47:18;;;;;;;173.05;162.73;;;4.50;99.90;;;;;;12371463;28;20058;-35
2024/01/06 12:53:20;;;;;;;185.50;174.25;;;4.50;99.90;;;;;;12361345;28;20055;-35
2024/01/06 12:59:22;;;;;;;186.20;174.95;;;4.20;99.90;;;;;;12375598;28;20054;-35
2024/01/06 13:05:24;;;;;;;176.52;165.80;;;4.20;99.90;;;;;;12377975;28;20062;-35
2024/01/06 13:11:28;;;;;;;189.75;178.38;;;4.30;99.90;;;;;;12363810;28;20180;-35
2024/01/06 13:17:30;;;;;;;186.97;175.80;;;4.20;99.90;;;;;;12362007;28;20047;-35
2024/01/06 13:23:31;;;;;;;181.82;170.90;;;4.10;99.90;;;;;;12361791;28;20049;-35
2024/01/06 13:29:34;;;;;;;179.52;168.88;;;4.10;99.90;;;;;;12382535;28;20080;-35
2024/01/06 13:35:37;;;;;;;181.35;170.68;;;4.10;99.90;;;;;;12353127;28;20138;-35
2024/01/06 13:41:39;;;;;;;180.80;170.00;;;4.20;99.90;;;;;;12352733;28;20583;-35
2024/01/06 13:47:44;;;;;;;179.57;168.90;;;4.10;99.90;;;;;;12368563;28;20058;-35
2024/01/06 13:53:46;;;;;;;188.98;177.60;;;4.10;99.90;;;;;;12370078;28;20519;-35
2024/01/06 13:59:48;;;;;;;202.85;190.00;;;4.10;99.90;;;;;;12364144;28;20129;-35
2024/01/06 14:05:51;;;;;;;221.95;207.52;;;4.00;99.90;;;;;;12386157;28;20050;-34
2024/01/06 14:11:54;;;;;;;223.50;209.23;;;4.00;99.90;;;;;;12352885;28;20050;-34
2024/01/06 14:17:56;;;;;;;224.70;210.25;;;3.90;99.90;;;;;;12410182;28;20053;-35
2024/01/06 14:23:59;;;;;;;230.15;215.45;;;4.00;99.90;;;;;;12373656;28;20061;-35
2024/01/06 14:30:01;;;;;;;235.00;219.90;;;4.00;99.90;;;;;;12364371;28;20050;-35
2024/01/06 14:36:04;;;;;;;230.73;216.18;;;3.90;99.90;;;;;;12360702;28;20513;-35
2024/01/06 14:42:06;;;;;;;225.20;210.80;;;3.80;99.90;;;;;;12363285;28;20502;-35
2024/01/06 14:48:08;;;;;;;230.65;215.90;;;3.60;99.90;;;;;;12366737;28;20043;-35
2024/01/06 14:54:10;;;;;;;224.57;210.10;;;3.50;99.90;;;;;;12354405;28;20058;-34
2024/01/06 15:00:13;;;;;;;223.80;209.68;;;3.50;99.90;;;;;;12353680;28;20058;-34
2024/01/06 15:06:17;;;;;;;218.00;204.13;;;3.40;99.90;;;;;;12409646;28;20422;-35
2024/01/06 15:12:19;;;;;;;214.67;201.07;;;3.30;99.90;;;;;;12346674;28;20059;-34
2024/01/06 15:18:21;;;;;;;199.18;186.43;;;3.10;99.90;;;;;;12384755;28;20051;-34
2024/01/06 15:24:23;;;;;;;218.88;205.15;;;2.90;99.90;;;;;;12369549;28;20061;-35
2024/01/06 15:30:25;;;;;;;216.35;202.68;;;2.90;99.90;;;;;;12394473;28;20047;-35
2024/01/06 15:36:27;;;;;;;212.15;198.90;;;3.00;99.90;;;;;;12356356;28;20080;-35
2024/01/06 15:42:31;;;;;;;213.45;199.93;;;3.10;99.90;;;;;;12359286;28;20055;-35
2024/01/06 15:48:33;;;;;;;213.63;199.90;;;2.80;99.90;;;;;;12354134;28;20411;-34
2024/01/06 15:54:36;;;;;;;212.50;199.05;;;2.90;99.90;;;;;;12361177;28;20053;-35
2024/01/06 16:00:37;;;;;;;210.95;197.20;;;2.90;99.90;;;;;;12356483;28;20046;-34
2024/01/06 16:06:40;;;;;;;203.45;190.27;;;2.90;99.90;;;;;;12357492;28;20430;-34
2024/01/06 16:12:42;;;;;;;210.82;197.23;;;2.50;99.90;;;;;;12349822;28;20054;-34
2024/01/06 16:18:44;;;;;;;208.65;194.85;;;2.50;99.90;;;;;;12364131;28;20051;-35
2024/01/06 16:24:47;;;;;;;191.00;178.50;;;2.50;99.90;;;;;;12369268;28;20053;-35
2024/01/06 16:30:49;;;;;;;202.40;189.55;;;2.30;99.90;;;;;;12363468;28;20058;-34
2024/01/06 16:36:51;;;;;;;190.80;178.98;;;2.30;99.90;;;;;;12389007;28;20814;-35
2024/01/06 16:42:53;;;;;;;192.20;180.13;;;2.30;99.90;;;;;;12358855;28;20046;-35
2024/01/06 16:48:55;;;;;;;190.50;178.40;;;2.20;99.90;;;;;;12367001;28;20142;-34
2024/01/06 16:54:57;;;;;;;190.93;178.77;;;2.30;99.90;;;;;;12370882;28;20038;-34
2024/01/06 17:00:59;;;;;;;183.32;171.60;;;2.40;99.90;;;;;;12371119;28;20639;-34
2024/01/06 17:07:04;;;;;;;184.02;172.35;;;2.20;99.90;;;;;;12375390;28;20119;-35
2024/01/06 17:13:06;;;;;;;180.77;169.27;;;2.00;99.90;;;;;;12359725;28;20509;-34
2024/01/06 17:19:08;;;;;;;172.07;161.05;;;2.00;99.90;;;;;;12368720;28;20133;-34
2024/01/06 17:25:12;;;;;;;176.45;165.10;;;1.90;99.90;;;;;;12387034;28;20143;-34
2024/01/06 17:31:17;;;;;;;178.80;167.45;;;1.90;99.90;;;;;;12371902;28;20061;-34
2024/01/06 17:37:19;;;;;;;155.15;145.35;;;2.00;99.90;;;;;;12360433;28;20398;-33
2024/01/06 17:43:21;;;;;;;172.80;161.60;;;1.80;99.90;;;;;;12341156;28;20490;-34
2024/01/06 17:49:23;;;;;;;177.45;166.23;;;1.70;99.90;;;;;;12347136;28;20078;-34
2024/01/06 17:55:26;;;;;;;176.43;165.10;;;1.70;99.90;;;;;;12366421;28;20467;-34
2024/01/06 18:01:28;;;;;;;171.57;160.52;;;1.60;99.90;;;;;;12359321;28;20471;-35
2024/01/06 18:07:31;;;;;;;181.32;169.82;;;1.40;99.90;;;;;;12372010;28;20172;-35
2024/01/06 18:13:33;;;;;;;178.25;166.77;;;1.40;99.90;;;;;;12350853;28;20054;-34
2024/01/06 18:19:35;;;;;;;183.68;171.85;;;1.30;99.90;;;;;;12372281;28;20046;-34
2024/01/06 18:25:37;;;;;;;179.35;167.90;;;1.30;99.90;;;;;;12367778;28;20039;-35
2024/01/06 18:31:39;;;;;;;174.95;163.75;;;1.20;99.90;;;;;;12364501;28;20051;-34
2024/01/06 18:37:41;;;;;;;175.32;164.00;;;1.20;99.90;;;;;;12351352;28;21068;-34
2024/01/06 18:43:43;;;;;;;165.85;154.98;;;1.10;99.90;;;;;;12355933;28;20061;-35
2024/01/06 18:49:45;;;;;;;175.70;164.05;;;1.10;99.90;;;;;;12370584;28;20046;-34
2024/01/06 18:55:47;;;;;;;176.25;164.82;;;1.10;99.90;;;;;;12348855;28;20498;-34
2024/01/06 19:01:49;;;;;;;183.15;171.30;;;1.00;99.90;;;;;;12370170;28;20414;-34
2024/01/06 19:07:51;;;;;;;182.68;170.70;;;1.00;99.90;;;;;;12354941;28;20108;-35
2024/01/06 19:13:53;;;;;;;187.15;174.75;;;1.10;99.90;;;;;;12363575;28;20130;-34
2024/01/06 19:19:55;;;;;;;186.25;174.02;;;1.00;99.90;;;;;;12365859;28;20054;-34
2024/01/06 19:25:57;;;;;;;182.77;170.48;;;1.10;99.90;;;;;;12352843;28;20050;-34
2024/01/06 19:31:59;;;;;;;174.38;162.98;;;1.00;99.90;;;;;;12350543;28;20081;-35
2024/01/06 19:38:01;;;;;;;173.48;162.02;;;1.10;99.90;;;;;;12364232;28;20509;-33
2024/01/06 19:44:03;;;;;;;169.57;158.10;;;1.10;99.90;;;;;;12352418;28;20319;-35
2024/01/06 19:50:06;;;;;;;159.57;149.38;;;1.00;99.90;;;;;;12360946;28;20047;-35
2024/01/06 19:56:14;;;;;;;157.32;146.93;;;1.00;99.90;;;;;;12349904;28;20148;-34
2024/01/06 20:02:15;;;;;;;151.27;141.07;;;1.00;99.90;;;;;;12388154;28;20054;-34
2024/01/06 20:08:17;;;;;;;149.98;139.85;;;1.00;99.90;;;;;;12397319;28;20061;-34
2024/01/06 20:14:19;;;;;;;152.40;142.60;;;0.90;99.90;;;;;;12370845;28;20863;-34
2024/01/06 20:20:21;;;;;;;165.93;154.75;;;0.80;99.90;;;;;;12349153;28;20093;-35
2024/01/06 20:26:25;;;;;;;150.15;140.05;;;0.90;99.90;;;;;;12353682;28;20085;-34
2024/01/06 20:32:28;;;;;;;151.88;141.93;;;0.80;99.90;;;;;;12366356;28;20053;-35
2024/01/06 20:38:30;;;;;;;148.07;138.45;;;0.80;99.90;;;;;;12380685;28;20074;-35
2024/01/06 20:44:33;;;;;;;145.65;135.95;;;0.70;99.90;;;;;;12361403;28;20085;-33
2024/01/06 20:50:36;;;;;;;141.32;131.90;;;0.70;99.90;;;;;;12370845;28;20049;-34
2024/01/06 20:56:39;;;;;;;147.18;137.57;;;0.70;99.90;;;;;;12367183;28;20043;-35
2024/01/06 21:02:40;;;;;;;145.15;135.52;;;0.70;99.90;;;;;;12373921;28;20086;-34
2024/01/06 21:08:43;;;;;;;146.90;137.40;;;0.70;99.90;;;;;;12392766;28;20530;-35
2024/01/06 21:14:44;;;;;;;149.63;140.13;;;0.60;99.90;;;;;;12378332;28;20046;-34
2024/01/06 21:20:46;;;;;;;149.38;139.65;;;0.60;99.90;;;;;;12364307;28;20053;-34
2024/01/06 21:26:48;;;;;;;145.18;135.95;;;0.60;99.90;;;;;;12374493;28;20402;-35
2024/01/06 21:32:53;;;;;;;159.27;149.10;;;0.60;99.90;;;;;;12357301;28;20080;-35
2024/01/06 21:38:56;;;;;;;160.35;150.05;;;0.50;99.90;;;;;;12355528;28;20050;-35
2024/01/06 21:44:59;;;;;;;166.85;156.30;;;0.50;99.90;;;;;;12367528;28;20521;-35
2024/01/06 21:51:01;;;;;;;166.57;155.93;;;0.50;99.90;;;;;;12345466;28;20077;-34
2024/01/06 21:57:03;;;;;;;162.00;151.73;;;0.50;99.90;;;;;;12360715;28;20479;-35
2024/01/06 22:03:05;;;;;;;159.13;149.05;;;0.40;99.90;;;;;;12367720;28;20055;-35
2024/01/06 22:09:08;;;;;;;155.90;146.10;;;0.40;99.90;;;;;;12390188;23;20439;-81
2024/01/06 22:15:17;;;;;;;168.95;158.18;;;0.30;99.90;;;;;;12391383;28;20054;-81
2024/01/06 22:21:19;;;;;;;181.27;169.98;;;0.30;99.90;;;;;;12411144;28;20050;-80
2024/01/06 22:27:21;;;;;;;203.95;191.52;;;0.30;99.90;;;;;;12489213;28;20055;-80
2024/01/06 22:33:26;;;;;;;219.15;205.85;;;0.30;99.90;;;;;;12377199;28;20042;-81
2024/01/06 22:39:28;;;;;;;186.32;174.95;;;0.30;99.90;;;;;;12384829;22;20054;-35
2024/01/06 22:45:31;;;;;;;160.05;150.05;;;0.20;99.90;;;;;;12392676;28;20129;-34
2024/01/06 22:51:33;;;;;;;162.57;152.40;;;0.20;99.90;;;;;;12354447;28;20054;-35
2024/01/06 22:57:36;;;;;;;160.75;150.73;;;0.20;99.90;;;;;;12379474;28;20076;-35
2024/01/06 23:03:39;;;;;;;163.25;153.23;;;0.20;99.90;;;;;;12359510;28;20073;-34
2024/01/06 23:09:41;;;;;;;168.25;157.80;;;0.20;99.90;;;;;;12358890;28;20150;-35
2024/01/06 23:15:43;;;;;;;166.98;156.48;;;0.20;99.90;;;;;;12374960;28;20133;-34
2024/01/06 23:21:45;;;;;;;168.80;157.88;;;0.10;99.90;;;;;;12418384;28;20047;-35
2024/01/06 23:27:47;;;;;;;177.00;166.07;;;0.10;99.90;;;;;;12370236;28;20102;-35
2024/01/06 23:33:49;;;;;;;166.25;155.77;;;0.20;99.90;;;;;;12375280;28;20057;-35
2024/01/06 23:39:51;;;;;;;167.13;156.73;;;0.10;99.90;;;;;;12344946;28;20069;-35
2024/01/06 23:45:53;;;;;;;163.52;153.43;;;0.10;99.90;;;;;;12330587;28;20498;-35
2024/01/06 23:51:55;;;;;;;152.85;143.18;;;0.10;99.90;;;;;;12330177;28;20051;-35
2024/01/06 23:57:57;;;;;;;165.55;154.90;;;0.10;99.90;;;;;;12296895;28;20423;-35
